createdAt,value
2022-10-01T00:01:18.338Z,100.00
2022-10-01T00:03:47.759Z,100.00
2022-10-01T00:06:20.168Z,100.00
2022-10-01T00:08:49.328Z,100.00
2022-10-01T00:11:25.283Z,100.00
2022-10-01T00:13:53.922Z,100.00
2022-10-01T00:16:23.393Z,100.00
2022-10-01T00:18:54.350Z,100.00
2022-10-01T00:21:24.485Z,100.00
2022-10-01T00:24:00.577Z,100.00
2022-10-01T00:26:29.876Z,100.00
2022-10-01T00:28:59.729Z,100.00
2022-10-01T00:31:27.214Z,100.00
2022-10-01T00:33:55.718Z,100.00
2022-10-01T00:36:22.768Z,100.00
2022-10-01T00:38:49.627Z,100.00
2022-10-01T00:41:18.045Z,100.00
2022-10-01T00:43:47.615Z,100.00
2022-10-01T00:46:27.562Z,100.00
2022-10-01T00:49:02.870Z,100.00
2022-10-01T00:51:35.153Z,100.00
2022-10-01T00:54:08.457Z,100.00
2022-10-01T00:56:36.431Z,100.00
2022-10-01T00:59:03.872Z,100.00
2022-10-01T01:01:32.218Z,100.00
2022-10-01T01:03:59.781Z,100.00
2022-10-01T01:06:27.446Z,100.00
2022-10-01T01:08:55.634Z,100.00
2022-10-01T01:11:26.875Z,100.00
2022-10-01T01:14:21.207Z,100.00
2022-10-01T01:16:52.400Z,100.00
2022-10-01T01:19:38.088Z,100.00
2022-10-01T01:22:08.235Z,100.00
2022-10-01T01:25:04.684Z,100.00
2022-10-01T01:27:38.557Z,100.00
2022-10-01T01:30:12.267Z,100.00
2022-10-01T01:32:54.724Z,100.00
2022-10-01T01:35:32.355Z,100.00
2022-10-01T01:38:03.584Z,100.00
2022-10-01T01:40:36.869Z,100.00
2022-10-01T01:43:08.455Z,100.00
2022-10-01T01:45:40.067Z,100.00
2022-10-01T01:48:10.078Z,100.00
2022-10-01T01:51:07.549Z,100.00
2022-10-01T01:53:34.577Z,100.00
2022-10-01T01:56:02.824Z,100.00
2022-10-01T01:58:30.266Z,100.00
2022-10-01T02:00:56.975Z,100.00
2022-10-01T02:03:29.364Z,100.00
2022-10-01T02:06:09.000Z,100.00
2022-10-01T02:08:49.930Z,100.00
2022-10-01T02:11:23.175Z,100.00
2022-10-01T02:14:47.592Z,100.00
2022-10-01T02:17:29.765Z,100.00
2022-10-01T02:20:07.582Z,100.00
2022-10-01T02:23:07.052Z,100.00
2022-10-01T02:25:39.995Z,100.00
2022-10-01T02:28:14.072Z,100.00
2022-10-01T02:30:44.875Z,100.00
2022-10-01T02:33:15.577Z,100.00
2022-10-01T02:35:46.001Z,100.00
2022-10-01T02:38:15.268Z,100.00
2022-10-01T02:40:45.612Z,100.00
2022-10-01T02:43:38.325Z,100.00
2022-10-01T02:46:17.376Z,100.00
2022-10-01T02:48:44.414Z,100.00
2022-10-01T02:52:08.301Z,100.00
2022-10-01T02:54:40.435Z,100.00
2022-10-01T02:57:25.944Z,100.00
2022-10-01T02:59:57.989Z,100.00
2022-10-01T03:02:28.159Z,100.00
2022-10-01T03:04:57.268Z,100.00
2022-10-01T03:07:28.208Z,100.00
2022-10-01T03:09:55.046Z,100.00
2022-10-01T03:12:22.717Z,100.00
2022-10-01T03:14:50.070Z,100.00
2022-10-01T03:17:17.718Z,100.00
2022-10-01T03:19:44.645Z,100.00
2022-10-01T03:22:18.431Z,100.00
2022-10-01T03:24:45.202Z,100.00
2022-10-01T03:27:11.973Z,100.00
2022-10-01T03:29:38.777Z,100.00
2022-10-01T03:32:05.661Z,100.00
2022-10-01T03:34:32.547Z,100.00
2022-10-01T03:36:59.314Z,100.00
2022-10-01T03:39:26.209Z,100.00
2022-10-01T03:41:53.154Z,100.00
2022-10-01T03:44:19.925Z,100.00
2022-10-01T03:46:48.163Z,100.00
2022-10-01T03:49:15.078Z,100.00
2022-10-01T03:51:42.100Z,100.00
2022-10-01T03:54:09.381Z,100.00
2022-10-01T03:56:37.181Z,100.00
2022-10-01T03:59:08.147Z,100.00
2022-10-01T04:01:35.258Z,100.00
2022-10-01T04:04:02.476Z,100.00
2022-10-01T04:06:29.273Z,100.00
2022-10-01T04:08:56.032Z,100.00
2022-10-01T04:11:22.948Z,100.00
2022-10-01T04:13:49.802Z,100.00
2022-10-01T04:16:17.260Z,100.00
2022-10-01T04:18:44.162Z,100.00
2022-10-01T04:21:12.882Z,100.00
2022-10-01T04:23:39.692Z,100.00
2022-10-01T04:26:06.428Z,100.00
2022-10-01T04:28:33.288Z,100.00
2022-10-01T04:31:18.841Z,100.00
2022-10-01T04:33:45.783Z,100.00
2022-10-01T04:36:12.694Z,100.00
2022-10-01T04:38:39.435Z,100.00
2022-10-01T04:41:06.582Z,100.00
2022-10-01T04:43:33.425Z,100.00
2022-10-01T04:46:00.230Z,100.00
2022-10-01T04:48:27.059Z,100.00
2022-10-01T04:50:53.958Z,100.00
2022-10-01T04:53:20.761Z,100.00
2022-10-01T04:55:48.027Z,100.00
2022-10-01T04:58:14.929Z,100.00
2022-10-01T05:00:41.844Z,100.00
2022-10-01T05:03:08.711Z,100.00
2022-10-01T05:05:35.731Z,100.00
2022-10-01T05:08:02.904Z,100.00
2022-10-01T05:10:29.744Z,100.00
2022-10-01T05:12:58.014Z,100.00
2022-10-01T05:15:24.798Z,100.00
2022-10-01T05:17:51.593Z,100.00
2022-10-01T05:20:21.448Z,100.00
2022-10-01T05:22:49.839Z,100.00
2022-10-01T05:25:17.388Z,100.00
2022-10-01T05:27:44.195Z,100.00
2022-10-01T05:30:13.443Z,100.00
2022-10-01T05:32:40.311Z,100.00
2022-10-01T05:35:08.480Z,100.00
2022-10-01T05:43:20.458Z,100.00
2022-10-01T05:45:47.229Z,100.00
2022-10-01T05:48:14.350Z,100.00
2022-10-01T05:50:42.444Z,100.00
2022-10-01T05:53:12.125Z,100.00
2022-10-01T05:55:39.101Z,100.00
2022-10-01T05:58:10.457Z,100.00
2022-10-01T06:00:38.754Z,100.00
2022-10-01T06:03:06.429Z,100.00
2022-10-01T06:05:35.007Z,100.00
2022-10-01T06:08:04.696Z,100.00
2022-10-01T06:10:31.498Z,100.00
2022-10-01T06:13:02.169Z,100.00
2022-10-01T06:15:30.305Z,100.00
2022-10-01T06:17:57.127Z,100.00
2022-10-01T06:20:24.130Z,100.00
2022-10-01T06:22:56.546Z,100.00
2022-10-01T06:25:24.688Z,100.00
2022-10-01T06:27:58.076Z,100.00
2022-10-01T06:30:29.289Z,100.00
2022-10-01T06:33:06.096Z,100.00
2022-10-01T06:35:34.624Z,100.00
2022-10-01T06:38:02.489Z,100.00
2022-10-01T06:40:30.634Z,100.00
2022-10-01T06:43:00.106Z,100.00
2022-10-01T06:45:28.674Z,100.00
2022-10-01T06:47:56.283Z,100.00
2022-10-01T06:50:23.946Z,100.00
2022-10-01T06:52:52.057Z,100.00
2022-10-01T06:55:25.383Z,100.00
2022-10-01T06:58:00.834Z,100.00
2022-10-01T07:00:29.971Z,100.00
2022-10-01T07:02:57.026Z,100.00
2022-10-01T07:05:24.737Z,100.00
2022-10-01T07:07:51.673Z,100.00
2022-10-01T07:10:20.981Z,100.00
2022-10-01T07:12:51.593Z,100.00
2022-10-01T07:15:21.237Z,100.00
2022-10-01T07:17:49.994Z,100.00
2022-10-01T07:20:18.777Z,100.00
2022-10-01T07:22:47.237Z,100.00
2022-10-01T07:25:15.007Z,100.00
2022-10-01T07:27:41.812Z,100.00
2022-10-01T07:30:09.009Z,100.00
2022-10-01T07:32:36.550Z,100.00
2022-10-01T07:35:03.721Z,100.00
2022-10-01T07:37:30.528Z,100.00
2022-10-01T07:39:57.297Z,100.00
2022-10-01T07:42:24.025Z,100.00
2022-10-01T07:44:50.752Z,100.00
2022-10-01T07:47:17.588Z,100.00
2022-10-01T07:49:44.362Z,100.00
2022-10-01T07:52:13.440Z,100.00
2022-10-01T07:54:40.885Z,100.00
2022-10-01T07:57:08.072Z,90.00
2022-10-01T07:59:37.228Z,85.44
2022-10-01T08:02:04.020Z,84.21
2022-10-01T08:04:49.602Z,83.38
2022-10-01T08:07:16.501Z,85.15
2022-10-01T08:09:43.309Z,82.13
2022-10-01T08:12:10.132Z,82.42
2022-10-01T08:14:36.919Z,82.53
2022-10-01T08:17:03.673Z,84.31
2022-10-01T08:19:30.461Z,85.43
2022-10-01T08:21:57.160Z,85.95
2022-10-01T08:24:24.418Z,84.39
2022-10-01T08:26:55.960Z,84.70
2022-10-01T08:29:23.812Z,84.30
2022-10-01T08:31:52.118Z,85.51
2022-10-01T08:34:20.124Z,82.55
2022-10-01T08:36:53.866Z,82.62
2022-10-01T08:39:20.686Z,82.61
2022-10-01T08:41:59.241Z,81.88
2022-10-01T08:44:31.035Z,82.02
2022-10-01T08:47:06.705Z,82.72
2022-10-01T08:49:47.842Z,82.73
2022-10-01T08:52:22.802Z,83.84
2022-10-01T08:54:58.013Z,82.58
2022-10-01T08:57:47.074Z,84.90
2022-10-01T09:00:17.073Z,84.46
2022-10-01T09:02:46.764Z,84.96
2022-10-01T09:05:32.026Z,83.63
2022-10-01T09:08:04.603Z,83.56
2022-10-01T09:10:47.445Z,83.30
2022-10-01T09:13:27.512Z,83.43
2022-10-01T09:16:33.115Z,84.63
2022-10-01T09:19:22.876Z,83.58
2022-10-01T09:22:06.183Z,83.77
2022-10-01T09:25:00.829Z,85.45
2022-10-01T09:27:28.563Z,86.93
2022-10-01T09:30:01.665Z,88.20
2022-10-01T09:32:41.381Z,88.46
2022-10-01T09:35:20.919Z,92.96
2022-10-01T09:37:58.037Z,97.77
2022-10-01T09:40:35.631Z,100.00
2022-10-01T09:43:04.565Z,100.00
2022-10-01T09:45:31.414Z,100.00
2022-10-01T09:48:05.242Z,100.00
2022-10-01T09:50:41.297Z,100.00
2022-10-01T09:53:17.830Z,100.00
2022-10-01T09:55:50.543Z,100.00
2022-10-01T09:58:24.004Z,100.00
2022-10-01T10:00:53.960Z,100.00
2022-10-01T10:03:30.881Z,100.00
2022-10-01T10:06:02.737Z,100.00
2022-10-01T10:08:33.471Z,100.00
2022-10-01T10:11:03.127Z,100.00
2022-10-01T10:13:50.168Z,100.00
2022-10-01T10:16:27.685Z,100.00
2022-10-01T10:19:15.568Z,100.00
2022-10-01T10:21:52.181Z,100.00
2022-10-01T10:24:33.827Z,100.00
2022-10-01T10:27:05.239Z,100.00
2022-10-01T10:29:34.542Z,100.00
2022-10-01T10:32:19.271Z,100.00
2022-10-01T10:34:47.059Z,100.00
2022-10-01T10:37:19.429Z,100.00
2022-10-01T10:39:52.394Z,100.00
2022-10-01T10:42:19.865Z,100.00
2022-10-01T10:44:49.776Z,100.00
2022-10-01T10:47:19.248Z,100.00
2022-10-01T10:49:47.728Z,100.00
2022-10-01T10:52:30.102Z,100.00
2022-10-01T10:54:59.088Z,100.00
2022-10-01T10:57:28.603Z,100.00
2022-10-01T11:00:16.542Z,100.00
2022-10-01T11:03:04.146Z,100.00
2022-10-01T11:05:33.537Z,100.00
2022-10-01T11:08:05.030Z,100.00
2022-10-01T11:10:54.606Z,100.00
2022-10-01T11:13:38.010Z,100.00
2022-10-01T11:16:26.128Z,100.00
2022-10-01T11:19:16.552Z,100.00
2022-10-01T11:22:08.108Z,100.00
2022-10-01T11:25:25.473Z,100.00
2022-10-01T11:28:03.563Z,100.00
2022-10-01T11:30:39.550Z,100.00
2022-10-01T11:33:46.489Z,100.00
2022-10-01T11:36:43.587Z,100.00
2022-10-01T11:39:16.773Z,100.00
2022-10-01T11:41:45.283Z,100.00
2022-10-01T11:44:51.593Z,100.00
2022-10-01T11:47:31.773Z,100.00
2022-10-01T11:50:05.419Z,100.00
2022-10-01T11:52:49.268Z,100.00
2022-10-01T11:55:46.829Z,100.00
2022-10-01T11:58:50.810Z,100.00
2022-10-01T12:01:23.748Z,100.00
2022-10-01T12:03:54.064Z,100.00
2022-10-01T12:06:28.425Z,100.00
2022-10-01T12:09:21.182Z,100.00
2022-10-01T12:12:15.518Z,100.00
2022-10-01T12:14:57.317Z,100.00
2022-10-01T12:17:33.808Z,100.00
2022-10-01T12:20:04.352Z,100.00
2022-10-01T12:22:34.651Z,100.00
2022-10-01T12:25:01.830Z,100.00
2022-10-01T12:27:48.001Z,100.00
2022-10-01T12:30:23.343Z,98.99
2022-10-01T12:33:07.575Z,100.00
2022-10-01T12:35:37.277Z,98.47
2022-10-01T12:38:22.243Z,95.27
2022-10-01T12:41:23.011Z,88.00
2022-10-01T12:44:29.788Z,85.66
2022-10-01T12:47:16.806Z,87.82
2022-10-01T12:49:43.529Z,88.08
2022-10-01T12:52:30.156Z,90.59
2022-10-01T12:55:06.659Z,91.98
2022-10-01T12:57:37.109Z,94.64
2022-10-01T13:00:24.532Z,98.67
2022-10-01T13:03:21.163Z,100.00
2022-10-01T13:06:06.385Z,100.00
2022-10-01T13:08:53.475Z,100.00
2022-10-01T13:11:36.402Z,100.00
2022-10-01T13:14:16.059Z,100.00
2022-10-01T13:16:54.421Z,100.00
2022-10-01T13:19:58.146Z,100.00
2022-10-01T13:22:42.798Z,100.00
2022-10-01T13:25:18.401Z,98.61
2022-10-01T13:27:59.247Z,96.96
2022-10-01T13:30:33.488Z,94.40
2022-10-01T13:33:01.286Z,89.65
2022-10-01T13:35:36.550Z,89.32
2022-10-01T13:38:17.575Z,89.31
2022-10-01T13:40:44.958Z,91.28
2022-10-01T13:43:24.325Z,94.04
2022-10-01T13:45:54.364Z,95.31
2022-10-01T13:48:24.445Z,94.10
2022-10-01T13:51:14.176Z,95.10
2022-10-01T13:53:43.996Z,98.30
2022-10-01T13:56:14.407Z,100.00
2022-10-01T13:58:43.521Z,97.81
2022-10-01T14:01:19.962Z,91.33
2022-10-01T14:03:55.679Z,90.27
2022-10-01T14:07:10.557Z,88.31
2022-10-01T14:09:43.925Z,81.43
2022-10-01T14:12:51.067Z,73.86
2022-10-01T14:15:57.672Z,61.50
2022-10-01T14:18:29.990Z,59.08
2022-10-01T14:21:08.711Z,56.96
2022-10-01T14:23:56.666Z,52.28
2022-10-01T14:26:45.848Z,50.42
2022-10-01T14:29:37.384Z,49.60
2022-10-01T14:32:41.593Z,49.65
2022-10-01T14:35:34.035Z,49.40
2022-10-01T14:38:03.347Z,49.17
2022-10-01T14:40:40.086Z,48.89
2022-10-01T14:43:26.864Z,48.49
2022-10-01T14:46:05.222Z,48.50
2022-10-01T14:48:37.867Z,48.83
2022-10-01T14:51:08.238Z,47.90
2022-10-01T14:53:42.848Z,46.70
2022-10-01T14:56:14.235Z,45.21
2022-10-01T14:58:54.553Z,43.18
2022-10-01T15:01:23.154Z,43.49
2022-10-01T15:03:51.095Z,42.87
2022-10-01T15:06:24.012Z,43.26
2022-10-01T15:08:51.937Z,43.51
2022-10-01T15:11:24.782Z,44.03
2022-10-01T15:13:54.587Z,45.21
2022-10-01T15:16:24.379Z,47.30
2022-10-01T15:19:03.922Z,48.90
2022-10-01T15:22:01.601Z,49.31
2022-10-01T15:24:44.377Z,50.22
2022-10-01T15:27:13.890Z,52.06
2022-10-01T15:29:42.797Z,53.37
2022-10-01T15:32:14.891Z,55.59
2022-10-01T15:34:48.005Z,59.13
2022-10-01T15:37:32.813Z,61.85
2022-10-01T15:40:00.821Z,64.85
2022-10-01T15:42:33.262Z,66.22
2022-10-01T15:45:09.227Z,70.87
2022-10-01T15:47:39.424Z,73.14
2022-10-01T15:50:06.222Z,73.84
2022-10-01T15:52:54.312Z,76.68
2022-10-01T15:55:25.904Z,78.65
2022-10-01T15:57:55.837Z,80.38
2022-10-01T16:00:25.798Z,83.69
2022-10-01T16:02:54.185Z,85.69
2022-10-01T16:05:24.733Z,87.14
2022-10-01T16:07:56.196Z,89.48
2022-10-01T16:10:40.751Z,92.16
2022-10-01T16:13:38.239Z,95.62
2022-10-01T16:16:10.647Z,98.87
2022-10-01T16:18:37.646Z,99.98
2022-10-01T16:21:06.169Z,100.00
2022-10-01T16:23:33.805Z,100.00
2022-10-01T16:26:01.809Z,100.00
2022-10-01T16:28:33.216Z,100.00
2022-10-01T16:31:01.096Z,100.00
2022-10-01T16:33:28.551Z,100.00
2022-10-01T16:36:09.125Z,100.00
2022-10-01T16:38:35.926Z,100.00
2022-10-01T16:41:05.438Z,100.00
2022-10-01T16:43:32.447Z,100.00
2022-10-01T16:45:59.381Z,100.00
2022-10-01T16:48:26.759Z,100.00
2022-10-01T16:50:53.984Z,100.00
2022-10-01T16:53:20.978Z,100.00
2022-10-01T16:55:47.778Z,100.00
2022-10-01T16:58:14.600Z,100.00
2022-10-01T17:00:41.995Z,100.00
2022-10-01T17:03:17.674Z,100.00
2022-10-01T17:05:45.448Z,100.00
2022-10-01T17:08:12.727Z,100.00
2022-10-01T17:10:43.916Z,100.00
2022-10-01T17:13:12.296Z,100.00
2022-10-01T17:15:39.602Z,100.00
2022-10-01T17:18:06.559Z,100.00
2022-10-01T17:20:34.098Z,100.00
2022-10-01T17:23:00.946Z,100.00
2022-10-01T17:25:34.579Z,100.00
2022-10-01T17:28:03.836Z,100.00
2022-10-01T17:30:31.597Z,100.00
2022-10-01T17:33:00.109Z,100.00
2022-10-01T17:35:28.144Z,100.00
2022-10-01T17:37:55.206Z,100.00
2022-10-01T17:40:21.977Z,100.00
2022-10-01T17:42:48.839Z,100.00
2022-10-01T17:45:16.017Z,100.00
2022-10-01T17:47:48.198Z,100.00
2022-10-01T17:50:15.378Z,100.00
2022-10-01T17:52:43.236Z,100.00
2022-10-01T17:55:12.257Z,100.00
2022-10-01T17:57:39.114Z,100.00
2022-10-01T18:00:06.721Z,100.00
2022-10-01T18:02:43.175Z,100.00
2022-10-01T18:05:14.543Z,100.00
2022-10-01T18:07:42.247Z,100.00
2022-10-01T18:10:11.921Z,100.00
2022-10-01T18:12:38.838Z,100.00
2022-10-01T18:15:06.010Z,100.00
2022-10-01T18:17:33.477Z,100.00
2022-10-01T18:20:00.532Z,100.00
2022-10-01T18:22:28.669Z,100.00
2022-10-01T18:24:55.499Z,100.00
2022-10-01T18:27:22.587Z,100.00
2022-10-01T18:29:49.445Z,100.00
2022-10-01T18:32:17.800Z,100.00
2022-10-01T18:34:52.537Z,100.00
2022-10-01T18:37:36.331Z,100.00
2022-10-01T18:40:22.366Z,100.00
2022-10-01T18:43:02.536Z,100.00
2022-10-01T18:45:44.480Z,100.00
2022-10-01T18:48:31.578Z,100.00
2022-10-01T18:51:24.527Z,100.00
2022-10-01T18:54:20.803Z,100.00
2022-10-01T18:57:04.269Z,100.00
2022-10-01T18:59:49.507Z,100.00
2022-10-01T19:02:38.183Z,100.00
2022-10-01T19:05:26.923Z,100.00
2022-10-01T19:08:08.860Z,100.00
2022-10-01T19:10:45.427Z,100.00
2022-10-01T19:13:36.566Z,100.00
2022-10-01T19:16:21.342Z,100.00
2022-10-01T19:19:11.308Z,100.00
2022-10-01T19:22:01.444Z,100.00
2022-10-01T19:24:37.138Z,100.00
2022-10-01T19:27:45.465Z,100.00
2022-10-01T19:30:17.755Z,100.00
2022-10-01T19:33:06.280Z,100.00
2022-10-01T19:35:39.106Z,100.00
2022-10-01T19:38:18.683Z,100.00
2022-10-01T19:40:57.118Z,100.00
2022-10-01T19:43:31.913Z,100.00
2022-10-01T19:46:28.878Z,100.00
2022-10-01T19:49:10.524Z,100.00
2022-10-01T19:52:21.246Z,100.00
2022-10-01T20:25:11.798Z,100.00
2022-10-01T20:28:11.778Z,100.00
2022-10-01T20:30:54.873Z,100.00
2022-10-01T20:33:35.582Z,100.00
2022-10-01T20:36:22.195Z,100.00
2022-10-01T20:39:36.002Z,100.00
2022-10-01T20:42:04.669Z,100.00
2022-10-01T20:44:36.398Z,100.00
2022-10-01T20:47:07.733Z,100.00
2022-10-01T20:49:46.477Z,100.00
2022-10-01T20:52:51.494Z,100.00
2022-10-01T20:55:29.302Z,100.00
2022-10-01T20:58:00.349Z,100.00
2022-10-01T21:00:28.334Z,100.00
2022-10-01T21:03:25.743Z,100.00
2022-10-01T21:06:03.400Z,100.00
2022-10-01T21:08:53.559Z,100.00
2022-10-01T21:11:30.564Z,100.00
2022-10-01T21:14:26.538Z,100.00
2022-10-01T21:17:05.360Z,100.00
2022-10-01T21:20:09.689Z,100.00
2022-10-01T21:22:51.322Z,100.00
2022-10-01T21:25:24.803Z,100.00
2022-10-01T21:28:00.665Z,100.00
2022-10-01T21:30:53.037Z,100.00
2022-10-01T21:33:34.896Z,100.00
2022-10-01T21:36:15.988Z,100.00
2022-10-01T21:38:45.797Z,100.00
2022-10-01T21:41:40.044Z,100.00
2022-10-01T21:44:11.300Z,100.00
2022-10-01T21:46:59.573Z,100.00
2022-10-01T21:49:56.833Z,100.00
2022-10-01T21:53:04.164Z,100.00
2022-10-01T21:56:03.654Z,100.00
2022-10-01T21:58:40.021Z,100.00
2022-10-01T22:01:29.097Z,100.00
2022-10-01T22:04:02.328Z,100.00
2022-10-01T22:06:38.855Z,100.00
2022-10-01T22:09:25.917Z,100.00
2022-10-01T22:11:56.806Z,100.00
2022-10-01T22:14:25.418Z,100.00
2022-10-01T22:16:57.994Z,100.00
2022-10-01T22:19:31.449Z,100.00
2022-10-01T22:22:23.035Z,100.00
2022-10-01T22:24:52.751Z,100.00
2022-10-01T22:27:44.276Z,100.00
2022-10-01T22:30:28.934Z,100.00
2022-10-01T22:33:03.094Z,100.00
2022-10-01T22:35:35.824Z,100.00
2022-10-01T22:38:27.714Z,100.00
2022-10-01T22:41:20.662Z,100.00
2022-10-01T22:43:47.571Z,100.00
2022-10-01T22:46:42.987Z,100.00
2022-10-01T22:49:24.574Z,100.00
2022-10-01T22:52:25.208Z,100.00
2022-10-01T22:55:06.867Z,100.00
2022-10-01T22:57:43.875Z,100.00
2022-10-01T23:00:14.482Z,100.00
2022-10-01T23:03:07.060Z,100.00
2022-10-01T23:05:50.520Z,100.00
2022-10-01T23:08:32.584Z,100.00
2022-10-01T23:11:24.166Z,100.00
2022-10-01T23:14:02.993Z,100.00
2022-10-01T23:16:35.825Z,100.00
2022-10-01T23:19:27.449Z,100.00
2022-10-01T23:22:32.463Z,100.00
2022-10-01T23:25:15.305Z,100.00
2022-10-01T23:28:09.843Z,100.00
2022-10-01T23:30:59.548Z,100.00
2022-10-01T23:33:31.997Z,100.00
2022-10-01T23:36:13.925Z,100.00
2022-10-01T23:38:52.748Z,100.00
2022-10-01T23:41:28.914Z,100.00
2022-10-01T23:44:10.290Z,100.00
2022-10-01T23:46:41.170Z,100.00
2022-10-01T23:49:14.613Z,100.00
2022-10-01T23:51:59.428Z,100.00
2022-10-01T23:54:42.103Z,100.00
2022-10-01T23:57:21.652Z,100.00
